Time;durP1;ratioP1;P1;durP2;ratioP2;P2;SDS_P1;SDS_P2;PMS_P1;PMS_P2;Temp;Humidity;BMP_temperature;BMP_pressure;BME280_temperature;BME280_humidity;BME280_pressure;Samples;Min_cycle;Max_cycle;Signal;HPM_P1;HPM_P2
2021/07/31 00:01:13;;;;;;;3.78;1.40;;;15.60;99.90;;;;;;4972086;28;20034;-61
2021/07/31 00:03:39;;;;;;;3.55;0.98;;;15.50;99.90;;;;;;4967735;28;20037;-60
2021/07/31 00:06:05;;;;;;;9.57;2.85;;;15.40;99.90;;;;;;4969582;28;20027;-61
2021/07/31 00:08:31;;;;;;;4.65;1.25;;;15.40;99.90;;;;;;4964109;28;20030;-61
2021/07/31 00:10:57;;;;;;;6.50;1.65;;;15.30;99.90;;;;;;4967368;28;20039;-62
2021/07/31 00:13:24;;;;;;;5.20;1.67;;;15.20;99.90;;;;;;4972564;28;20035;-61
2021/07/31 00:15:50;;;;;;;5.13;1.40;;;15.10;99.90;;;;;;4972000;28;20035;-62
2021/07/31 00:18:15;;;;;;;14.38;1.70;;;15.10;99.90;;;;;;4965277;28;20034;-61
2021/07/31 00:20:41;;;;;;;5.05;0.98;;;15.00;99.90;;;;;;4966649;28;20078;-61
2021/07/31 00:23:08;;;;;;;3.20;1.08;;;15.00;99.90;;;;;;4966251;28;20030;-61
2021/07/31 00:25:33;;;;;;;6.97;1.20;;;15.00;99.90;;;;;;4967935;28;20023;-61
2021/07/31 00:27:59;;;;;;;6.32;1.25;;;14.90;99.90;;;;;;4970604;28;20452;-61
2021/07/31 00:30:26;;;;;;;9.82;1.73;;;15.00;99.90;;;;;;4969909;28;20117;-61
2021/07/31 00:32:52;;;;;;;9.38;2.25;;;15.00;99.90;;;;;;4968249;28;20039;-61
2021/07/31 00:35:19;;;;;;;4.65;1.50;;;15.00;99.90;;;;;;4970768;28;20037;-61
2021/07/31 00:37:45;;;;;;;7.38;1.10;;;15.10;99.90;;;;;;4971173;28;20061;-61
2021/07/31 00:40:11;;;;;;;3.67;1.40;;;15.20;99.90;;;;;;4969433;28;20544;-61
2021/07/31 00:42:41;;;;;;;2.25;1.20;;;15.20;99.90;;;;;;4944168;28;20058;-61
2021/07/31 00:45:11;;;;;;;2.38;1.13;;;15.30;99.90;;;;;;4959260;28;20114;-61
2021/07/31 00:47:37;;;;;;;4.45;1.55;;;15.40;99.90;;;;;;4961338;28;20114;-60
2021/07/31 00:50:04;;;;;;;3.95;1.23;;;15.40;99.90;;;;;;4960940;28;20501;-61
2021/07/31 00:52:30;;;;;;;6.13;1.27;;;15.30;99.90;;;;;;4955255;28;20045;-61
2021/07/31 00:54:58;;;;;;;4.13;1.00;;;15.30;99.90;;;;;;4963133;28;20039;-60
2021/07/31 00:57:23;;;;;;;6.80;1.05;;;15.30;99.90;;;;;;4975769;28;20564;-61
2021/07/31 00:59:49;;;;;;;5.88;1.52;;;15.20;99.90;;;;;;4966934;28;20126;-60
2021/07/31 01:02:15;;;;;;;2.80;1.20;;;15.20;99.90;;;;;;4965683;28;20031;-61
2021/07/31 01:04:41;;;;;;;9.10;1.20;;;15.20;99.90;;;;;;4964784;28;20087;-61
2021/07/31 01:07:07;;;;;;;7.47;2.13;;;15.10;99.90;;;;;;4965268;28;20031;-60
2021/07/31 01:09:32;;;;;;;7.38;1.20;;;15.20;99.90;;;;;;4963403;28;20504;-61
2021/07/31 01:11:58;;;;;;;6.43;1.50;;;15.10;99.90;;;;;;4968316;28;20037;-61
2021/07/31 01:14:24;;;;;;;5.25;1.42;;;15.10;99.90;;;;;;4968007;28;20436;-61
2021/07/31 01:16:49;;;;;;;2.90;1.20;;;15.10;99.90;;;;;;4970726;28;20543;-61
2021/07/31 01:19:15;;;;;;;5.97;1.10;;;15.00;99.90;;;;;;4967594;28;20035;-60
2021/07/31 01:21:45;;;;;;;6.63;1.33;;;15.00;99.90;;;;;;4970740;28;20030;-61
2021/07/31 01:24:12;;;;;;;7.57;2.25;;;15.00;99.90;;;;;;4969843;28;20385;-61
2021/07/31 01:26:43;;;;;;;3.67;1.20;;;15.00;99.90;;;;;;4970482;28;20030;-61
2021/07/31 01:29:10;;;;;;;5.35;1.80;;;15.00;99.90;;;;;;4969709;28;20512;-61
2021/07/31 01:31:36;;;;;;;8.45;2.47;;;15.10;99.90;;;;;;4970128;28;20081;-61
2021/07/31 01:34:03;;;;;;;6.38;1.50;;;15.20;99.90;;;;;;4969563;28;20026;-61
2021/07/31 01:36:29;;;;;;;3.97;1.52;;;15.20;99.90;;;;;;4970359;28;20090;-61
2021/07/31 01:38:59;;;;;;;4.07;1.23;;;15.30;99.90;;;;;;4969759;28;20031;-61
2021/07/31 01:41:25;;;;;;;3.30;1.35;;;15.40;99.90;;;;;;4965168;28;20524;-60
2021/07/31 01:43:51;;;;;;;4.53;1.42;;;15.40;99.90;;;;;;4967492;28;20039;-60
2021/07/31 01:46:18;;;;;;;2.75;0.95;;;15.30;99.90;;;;;;4970278;28;20026;-61
2021/07/31 01:48:43;;;;;;;5.43;1.27;;;15.30;99.90;;;;;;4966190;28;20027;-61
2021/07/31 01:51:09;;;;;;;9.15;1.45;;;15.20;99.90;;;;;;4964762;28;20349;-60
2021/07/31 01:53:35;;;;;;;5.95;1.60;;;15.20;99.90;;;;;;4969514;28;20696;-61
2021/07/31 01:56:00;;;;;;;5.82;1.40;;;15.20;99.90;;;;;;4966656;28;20476;-61
2021/07/31 01:58:26;;;;;;;3.47;0.98;;;15.20;99.90;;;;;;4968864;28;20066;-60
2021/07/31 02:00:55;;;;;;;6.10;1.27;;;15.20;99.90;;;;;;4968942;28;20651;-60
2021/07/31 02:03:21;;;;;;;4.97;1.40;;;15.20;99.90;;;;;;4949126;28;20108;-61
2021/07/31 02:05:47;;;;;;;4.47;1.35;;;15.30;99.90;;;;;;4967777;28;20125;-60
2021/07/31 02:08:12;;;;;;;2.33;1.20;;;15.30;99.90;;;;;;4968703;28;20034;-61
2021/07/31 02:10:38;;;;;;;4.47;1.30;;;15.40;99.90;;;;;;4968958;28;20401;-61
2021/07/31 02:13:04;;;;;;;3.97;1.05;;;15.40;99.90;;;;;;4969009;28;20037;-61
2021/07/31 02:15:29;;;;;;;7.25;1.60;;;15.40;99.90;;;;;;4966240;28;20056;-62
2021/07/31 02:17:56;;;;;;;4.35;1.42;;;15.40;99.90;;;;;;4971021;28;20038;-62
2021/07/31 02:20:22;;;;;;;4.15;1.33;;;15.40;99.90;;;;;;4971254;28;20022;-59
2021/07/31 02:22:48;;;;;;;4.07;1.23;;;15.40;99.90;;;;;;4984762;28;20126;-61
2021/07/31 02:25:13;;;;;;;2.92;1.08;;;15.40;99.90;;;;;;4972132;28;20469;-60
2021/07/31 02:27:39;;;;;;;7.70;1.70;;;15.40;99.90;;;;;;4972276;28;20119;-61
2021/07/31 02:30:06;;;;;;;6.47;1.50;;;15.40;99.90;;;;;;4972692;28;20046;-61
2021/07/31 02:32:31;;;;;;;5.35;2.20;;;15.40;99.90;;;;;;4971237;28;20109;-61
2021/07/31 02:34:57;;;;;;;6.35;1.50;;;15.40;99.90;;;;;;4971155;28;20453;-60
2021/07/31 02:37:22;;;;;;;2.90;1.20;;;15.40;99.90;;;;;;4972569;28;20039;-61
2021/07/31 02:39:48;;;;;;;4.70;1.40;;;15.40;99.90;;;;;;4970684;28;20045;-61
2021/07/31 02:42:15;;;;;;;5.38;1.20;;;15.40;99.90;;;;;;4970556;28;20077;-61
2021/07/31 02:44:40;;;;;;;5.43;1.42;;;15.40;99.90;;;;;;4967330;28;20035;-60
2021/07/31 02:47:06;;;;;;;3.58;1.40;;;15.50;99.90;;;;;;4972347;28;20034;-61
2021/07/31 02:49:32;;;;;;;7.32;1.65;;;15.50;99.90;;;;;;4964571;28;20030;-61
2021/07/31 02:51:57;;;;;;;5.68;1.30;;;15.50;99.90;;;;;;4972624;28;20047;-62
2021/07/31 02:54:23;;;;;;;3.00;1.25;;;15.50;99.90;;;;;;4935661;28;1068446;-61
2021/07/31 02:56:48;;;;;;;4.88;1.35;;;15.50;99.90;;;;;;4973643;28;20570;-61
2021/07/31 02:59:14;;;;;;;6.88;1.73;;;15.50;99.90;;;;;;4972763;28;20527;-60
2021/07/31 03:01:39;;;;;;;5.75;1.50;;;15.40;99.90;;;;;;4967941;28;20026;-60
2021/07/31 03:04:05;;;;;;;3.90;1.17;;;15.40;99.90;;;;;;4955735;28;20055;-62
2021/07/31 03:06:31;;;;;;;3.80;1.52;;;15.30;99.90;;;;;;4971904;28;20123;-61
2021/07/31 03:08:56;;;;;;;5.35;1.27;;;15.20;99.90;;;;;;4972417;28;20066;-62
2021/07/31 03:11:23;;;;;;;10.18;1.45;;;15.10;99.90;;;;;;4973245;28;20066;-62
2021/07/31 03:13:48;;;;;;;4.20;1.20;;;15.10;99.90;;;;;;4970669;28;20116;-62
2021/07/31 03:16:14;;;;;;;2.47;0.95;;;15.10;99.90;;;;;;4971186;28;20034;-62
2021/07/31 03:18:39;;;;;;;2.88;1.23;;;15.10;99.90;;;;;;4970479;28;20118;-62
2021/07/31 03:21:05;;;;;;;4.68;1.23;;;15.10;99.90;;;;;;4970663;28;20062;-62
2021/07/31 03:23:30;;;;;;;6.45;1.20;;;15.20;99.90;;;;;;4970113;28;20440;-62
2021/07/31 03:25:57;;;;;;;2.25;1.13;;;15.10;99.90;;;;;;4969909;28;20069;-62
2021/07/31 03:28:24;;;;;;;6.55;1.30;;;15.10;99.90;;;;;;4972716;28;20497;-60
2021/07/31 03:30:49;;;;;;;5.15;1.80;;;15.20;99.90;;;;;;4968870;28;20508;-62
2021/07/31 03:33:15;;;;;;;8.32;1.83;;;15.20;99.90;;;;;;4970902;28;20022;-62
2021/07/31 03:35:43;;;;;;;2.78;1.15;;;15.20;99.90;;;;;;4971725;28;20432;-62
2021/07/31 03:38:10;;;;;;;3.72;1.65;;;15.20;99.90;;;;;;4970440;28;20034;-62
2021/07/31 03:40:36;;;;;;;4.45;1.30;;;15.30;99.90;;;;;;4971793;28;20034;-62
2021/07/31 03:43:02;;;;;;;4.07;1.27;;;15.30;99.90;;;;;;4970940;28;20747;-62
2021/07/31 03:45:28;;;;;;;5.90;1.30;;;15.30;99.90;;;;;;4969034;28;20531;-62
2021/07/31 03:47:54;;;;;;;5.20;1.50;;;15.40;99.90;;;;;;4971286;28;20031;-61
2021/07/31 03:50:20;;;;;;;4.70;1.33;;;15.40;99.90;;;;;;4972261;28;20029;-62
2021/07/31 03:52:45;;;;;;;9.27;3.38;;;15.50;99.90;;;;;;4972772;28;20550;-62
2021/07/31 03:55:11;;;;;;;2.65;1.15;;;15.50;99.90;;;;;;4966402;28;20037;-62
2021/07/31 03:57:37;;;;;;;6.93;1.70;;;15.50;99.90;;;;;;4970116;28;20113;-61
2021/07/31 04:00:04;;;;;;;8.65;1.38;;;15.50;99.90;;;;;;4970470;28;20031;-62
2021/07/31 04:02:30;;;;;;;4.70;1.52;;;15.50;99.90;;;;;;4969016;28;20054;-61
2021/07/31 04:04:56;;;;;;;8.23;2.20;;;15.50;99.90;;;;;;4956544;28;20051;-62
2021/07/31 04:07:21;;;;;;;3.70;1.60;;;15.50;99.90;;;;;;4971463;28;20023;-62
2021/07/31 04:09:47;;;;;;;6.63;1.70;;;15.50;99.90;;;;;;4970228;28;20480;-62
2021/07/31 04:12:13;;;;;;;7.57;1.48;;;15.50;99.90;;;;;;4972483;28;20381;-62
2021/07/31 04:14:38;;;;;;;7.57;1.88;;;15.50;99.90;;;;;;4968303;28;20038;-62
2021/07/31 04:17:04;;;;;;;9.00;1.50;;;15.50;99.90;;;;;;4962940;28;20035;-62
2021/07/31 04:19:29;;;;;;;5.03;1.45;;;15.50;99.90;;;;;;4970109;28;20690;-62
2021/07/31 04:21:58;;;;;;;8.82;1.58;;;15.50;99.90;;;;;;4970343;28;20038;-62
2021/07/31 04:24:24;;;;;;;5.97;1.40;;;15.50;99.90;;;;;;4966401;28;20054;-62
2021/07/31 04:26:50;;;;;;;3.42;1.27;;;15.50;99.90;;;;;;4970106;28;20035;-65
2021/07/31 04:29:16;;;;;;;3.95;1.20;;;15.50;99.90;;;;;;4970586;28;20089;-62
2021/07/31 04:31:42;;;;;;;5.88;1.50;;;15.60;99.90;;;;;;4968480;28;20085;-62
2021/07/31 04:34:07;;;;;;;8.32;1.77;;;15.60;99.90;;;;;;4970039;28;20062;-62
2021/07/31 04:36:33;;;;;;;6.70;1.83;;;15.60;99.90;;;;;;4971018;28;20038;-61
2021/07/31 04:39:00;;;;;;;5.63;1.08;;;15.60;99.90;;;;;;4968707;28;20676;-62
2021/07/31 04:41:26;;;;;;;2.25;1.40;;;15.60;99.90;;;;;;4963986;28;20163;-62
2021/07/31 04:43:51;;;;;;;4.07;1.42;;;15.60;99.90;;;;;;4965912;28;20795;-62
2021/07/31 04:46:17;;;;;;;3.38;1.30;;;15.70;99.90;;;;;;4968037;28;20555;-62
2021/07/31 04:48:42;;;;;;;10.02;1.73;;;15.70;99.90;;;;;;4969030;28;20046;-62
2021/07/31 04:51:11;;;;;;;4.15;1.35;;;15.60;99.90;;;;;;4971193;28;20038;-62
2021/07/31 04:53:37;;;;;;;4.88;1.33;;;15.70;99.90;;;;;;4967742;28;20560;-61
2021/07/31 04:56:03;;;;;;;7.25;1.58;;;15.70;99.90;;;;;;4971002;28;20057;-62
2021/07/31 04:58:28;;;;;;;9.20;1.73;;;15.70;99.90;;;;;;4969048;28;20090;-61
2021/07/31 05:00:55;;;;;;;9.90;1.85;;;15.70;99.90;;;;;;4970211;28;20034;-61
2021/07/31 05:03:21;;;;;;;8.57;1.80;;;15.70;99.90;;;;;;4969635;28;20488;-62
2021/07/31 05:05:47;;;;;;;5.40;2.15;;;15.70;99.90;;;;;;4968981;28;20053;-62
2021/07/31 05:08:14;;;;;;;6.30;1.30;;;15.80;99.90;;;;;;4971489;28;20046;-62
2021/07/31 05:10:50;;;;;;;11.73;1.70;;;15.90;99.90;;;;;;4967692;28;20082;-62
2021/07/31 05:13:16;;;;;;;4.45;1.30;;;15.90;99.90;;;;;;4969900;28;20034;-61
2021/07/31 05:15:44;;;;;;;7.15;1.50;;;15.90;99.90;;;;;;4969925;28;20111;-60
2021/07/31 05:18:11;;;;;;;11.05;2.85;;;16.00;99.90;;;;;;4966731;28;20026;-62
2021/07/31 05:20:41;;;;;;;3.22;1.50;;;16.10;99.90;;;;;;4968164;28;20420;-62
2021/07/31 05:23:07;;;;;;;4.80;1.50;;;16.10;99.90;;;;;;4970391;28;20397;-62
2021/07/31 05:25:33;;;;;;;4.38;1.30;;;16.20;99.90;;;;;;4970280;28;20161;-62
2021/07/31 05:27:59;;;;;;;4.35;1.40;;;16.20;99.90;;;;;;4968747;28;20141;-62
2021/07/31 05:30:25;;;;;;;5.63;2.05;;;16.20;99.90;;;;;;4965632;28;20027;-61
2021/07/31 05:32:50;;;;;;;4.57;1.20;;;16.30;99.90;;;;;;4969374;28;20030;-62
2021/07/31 05:35:16;;;;;;;4.45;1.80;;;16.30;99.90;;;;;;4966434;28;20579;-62
2021/07/31 05:37:42;;;;;;;4.85;1.30;;;16.30;99.90;;;;;;4971833;28;20539;-62
2021/07/31 05:40:08;;;;;;;2.90;1.30;;;16.40;99.90;;;;;;4967873;28;20795;-61
2021/07/31 05:42:33;;;;;;;3.58;1.75;;;16.50;99.90;;;;;;4962955;28;20041;-62
2021/07/31 05:45:01;;;;;;;7.75;1.92;;;16.80;99.90;;;;;;4969191;28;20481;-62
2021/07/31 05:47:28;;;;;;;8.63;2.10;;;16.90;99.90;;;;;;4968810;28;20089;-62
2021/07/31 05:49:58;;;;;;;4.43;2.25;;;17.20;99.90;;;;;;4968320;28;20023;-62
2021/07/31 05:52:25;;;;;;;3.97;1.63;;;17.40;99.90;;;;;;4968820;28;20086;-62
2021/07/31 05:54:55;;;;;;;6.70;2.03;;;17.40;99.90;;;;;;4969533;28;20377;-62
2021/07/31 05:57:20;;;;;;;10.05;1.70;;;17.40;99.90;;;;;;4969483;28;20031;-62
2021/07/31 05:59:46;;;;;;;8.63;2.17;;;17.20;99.90;;;;;;4969951;28;20070;-62
2021/07/31 06:02:12;;;;;;;5.70;2.10;;;17.10;99.90;;;;;;4967931;28;20042;-62
2021/07/31 06:04:37;;;;;;;5.28;1.98;;;17.00;99.90;;;;;;4968349;28;20053;-61
2021/07/31 06:07:06;;;;;;;5.57;2.17;;;16.90;99.90;;;;;;4960980;28;20082;-62
2021/07/31 06:09:33;;;;;;;9.07;3.15;;;16.70;99.90;;;;;;4965855;28;20444;-61
2021/07/31 06:11:58;;;;;;;6.45;1.80;;;16.60;99.90;;;;;;4968343;28;20031;-61
2021/07/31 06:14:24;;;;;;;7.43;1.67;;;16.60;99.90;;;;;;4967625;28;20029;-62
2021/07/31 06:16:49;;;;;;;6.80;1.73;;;16.50;99.90;;;;;;4967472;28;20038;-61
2021/07/31 06:19:15;;;;;;;7.65;2.22;;;16.40;99.90;;;;;;4968944;28;20090;-62
2021/07/31 06:21:40;;;;;;;6.28;1.88;;;16.40;99.90;;;;;;4969151;28;20030;-63
2021/07/31 06:24:06;;;;;;;5.22;1.75;;;16.40;99.90;;;;;;4966444;28;20030;-62
2021/07/31 06:26:32;;;;;;;7.22;1.52;;;16.40;99.90;;;;;;4969495;28;20086;-62
2021/07/31 06:28:57;;;;;;;4.20;1.88;;;16.40;99.90;;;;;;4966437;28;20038;-59
2021/07/31 06:31:23;;;;;;;5.20;1.85;;;16.40;99.90;;;;;;4967886;28;20034;-62
2021/07/31 06:33:48;;;;;;;4.80;2.22;;;16.30;99.90;;;;;;4966522;28;20038;-62
2021/07/31 06:36:19;;;;;;;9.23;1.90;;;16.40;99.90;;;;;;4968998;28;20023;-62
2021/07/31 06:38:45;;;;;;;5.57;1.45;;;16.40;99.90;;;;;;4968364;28;20400;-62
2021/07/31 06:41:10;;;;;;;5.35;2.00;;;16.40;99.90;;;;;;4961027;28;20019;-62
2021/07/31 06:43:36;;;;;;;6.00;2.13;;;16.40;99.90;;;;;;4968076;28;20031;-62
2021/07/31 06:46:15;;;;;;;5.05;2.00;;;16.50;99.90;;;;;;4971078;28;20624;-62
2021/07/31 06:48:41;;;;;;;5.03;1.98;;;16.60;99.90;;;;;;4969970;28;20033;-62
2021/07/31 06:51:08;;;;;;;7.72;2.25;;;16.70;99.90;;;;;;4965259;28;20523;-62
2021/07/31 06:53:34;;;;;;;6.55;1.90;;;16.80;99.90;;;;;;4968325;28;20038;-61
2021/07/31 06:56:00;;;;;;;3.20;1.85;;;16.80;99.90;;;;;;4970116;28;20049;-62
2021/07/31 06:58:26;;;;;;;7.18;1.80;;;16.90;99.90;;;;;;4964828;28;20023;-62
2021/07/31 07:00:52;;;;;;;5.18;1.98;;;17.00;99.90;;;;;;4966361;28;20046;-62
2021/07/31 07:03:18;;;;;;;7.32;1.90;;;17.10;99.90;;;;;;4971591;28;20093;-63
2021/07/31 07:05:44;;;;;;;5.57;2.35;;;17.20;99.90;;;;;;4971443;28;20027;-61
2021/07/31 07:08:10;;;;;;;5.90;1.55;;;17.40;99.90;;;;;;4971004;28;20026;-62
2021/07/31 07:10:35;;;;;;;4.80;1.67;;;17.50;99.90;;;;;;4970996;28;20019;-62
2021/07/31 07:13:07;;;;;;;6.10;1.92;;;17.70;99.90;;;;;;4972319;28;20042;-63
2021/07/31 07:15:33;;;;;;;3.55;1.45;;;18.10;99.90;;;;;;4971774;28;20046;-63
2021/07/31 07:17:58;;;;;;;2.92;1.63;;;18.70;99.90;;;;;;4967585;28;20496;-62
2021/07/31 07:20:27;;;;;;;6.72;1.80;;;18.90;99.90;;;;;;4972785;28;20101;-63
2021/07/31 07:22:53;;;;;;;7.90;1.95;;;19.00;99.90;;;;;;4968778;28;20401;-62
2021/07/31 07:25:19;;;;;;;5.25;1.90;;;19.10;99.90;;;;;;4970916;28;20037;-63
2021/07/31 07:27:47;;;;;;;6.13;2.05;;;18.90;99.90;;;;;;4968867;28;20137;-62
2021/07/31 07:30:13;;;;;;;2.75;1.48;;;18.60;99.90;;;;;;4972251;28;20208;-62
2021/07/31 07:32:38;;;;;;;2.58;1.80;;;18.50;99.90;;;;;;4968382;28;20406;-62
2021/07/31 07:35:05;;;;;;;4.10;1.48;;;18.30;99.90;;;;;;4971298;28;20046;-62
2021/07/31 07:37:32;;;;;;;5.28;1.58;;;18.30;99.90;;;;;;4987626;28;20031;-62
2021/07/31 07:39:59;;;;;;;2.90;1.33;;;18.50;99.90;;;;;;4969631;28;20039;-62
2021/07/31 07:42:25;;;;;;;4.13;1.67;;;19.40;99.90;;;;;;4972609;28;20030;-63
2021/07/31 07:44:50;;;;;;;4.55;1.70;;;19.80;99.90;;;;;;4970868;28;20031;-63
2021/07/31 07:47:16;;;;;;;5.70;1.30;;;20.40;99.60;;;;;;4971251;28;20025;-63
2021/07/31 07:49:42;;;;;;;1.83;1.15;;;20.50;98.90;;;;;;4969644;28;20118;-63
2021/07/31 07:52:07;;;;;;;2.72;1.35;;;20.20;99.70;;;;;;4971098;28;20805;-63
2021/07/31 07:54:33;;;;;;;3.85;1.50;;;20.20;99.10;;;;;;4970977;28;20046;-62
2021/07/31 07:57:03;;;;;;;5.60;1.40;;;19.70;99.80;;;;;;4971196;28;20037;-63
2021/07/31 07:59:29;;;;;;;4.22;2.20;;;19.70;99.90;;;;;;4968910;28;20033;-62
2021/07/31 08:01:55;;;;;;;6.35;1.88;;;19.20;99.90;;;;;;4969999;28;20039;-61
2021/07/31 08:04:20;;;;;;;6.55;2.10;;;18.70;99.90;;;;;;4970527;28;20027;-62
2021/07/31 08:06:46;;;;;;;5.78;1.80;;;18.70;99.90;;;;;;4970376;28;20404;-62
2021/07/31 08:09:12;;;;;;;2.28;1.30;;;18.50;99.90;;;;;;4972138;28;20105;-63
2021/07/31 08:11:45;;;;;;;3.80;1.58;;;18.40;99.90;;;;;;4970755;28;20135;-61
2021/07/31 08:14:13;;;;;;;4.13;1.83;;;18.50;99.90;;;;;;4968964;28;20031;-62
2021/07/31 08:16:39;;;;;;;3.30;1.70;;;18.40;99.90;;;;;;4969423;28;20524;-63
2021/07/31 08:19:06;;;;;;;5.57;1.90;;;18.40;99.90;;;;;;4969850;28;20058;-62
2021/07/31 08:21:32;;;;;;;5.03;2.10;;;18.60;99.90;;;;;;4972398;28;20057;-62
2021/07/31 08:24:04;;;;;;;5.70;1.52;;;18.60;99.90;;;;;;4968979;28;20034;-62
2021/07/31 08:26:29;;;;;;;3.85;1.42;;;18.60;99.90;;;;;;4972232;28;20086;-62
2021/07/31 08:28:55;;;;;;;6.45;1.70;;;18.70;99.90;;;;;;4970063;28;20428;-63
2021/07/31 08:31:24;;;;;;;5.47;1.85;;;19.10;99.90;;;;;;4968778;28;20058;-63
2021/07/31 08:33:49;;;;;;;5.68;2.08;;;20.30;99.70;;;;;;4969221;28;20027;-62
2021/07/31 08:36:15;;;;;;;7.60;1.65;;;20.30;97.70;;;;;;4971170;28;20034;-63
2021/07/31 08:38:44;;;;;;;3.38;1.55;;;20.50;98.80;;;;;;4969800;28;20042;-63
2021/07/31 08:41:09;;;;;;;5.30;1.52;;;21.20;97.40;;;;;;4968975;28;20575;-63
2021/07/31 08:43:38;;;;;;;4.45;1.50;;;22.40;96.60;;;;;;4970486;28;20023;-63
2021/07/31 08:46:09;;;;;;;6.20;1.40;;;23.50;95.40;;;;;;4971753;28;20027;-63
2021/07/31 08:48:35;;;;;;;3.65;1.05;;;23.60;93.50;;;;;;4970676;28;20096;-63
2021/07/31 08:51:02;;;;;;;5.90;1.67;;;22.80;93.60;;;;;;4970458;28;20035;-63
2021/07/31 08:53:30;;;;;;;5.93;1.60;;;21.70;94.70;;;;;;4970537;28;20062;-63
2021/07/31 08:55:59;;;;;;;4.95;1.85;;;20.90;95.70;;;;;;4969437;28;20684;-63
2021/07/31 08:58:28;;;;;;;4.85;1.75;;;20.20;96.60;;;;;;4969653;28;20503;-63
2021/07/31 09:00:56;;;;;;;2.83;1.50;;;19.70;97.50;;;;;;4969956;28;20031;-63
2021/07/31 09:03:22;;;;;;;4.63;1.60;;;19.30;98.10;;;;;;4969784;28;20031;-62
2021/07/31 09:05:48;;;;;;;3.95;2.55;;;19.10;99.30;;;;;;4969258;28;20038;-63
2021/07/31 09:08:14;;;;;;;7.72;2.17;;;18.90;99.40;;;;;;4967765;28;20050;-63
2021/07/31 09:10:42;;;;;;;6.15;2.22;;;18.60;99.90;;;;;;4966114;28;20879;-62
2021/07/31 09:13:13;;;;;;;3.40;1.70;;;18.50;99.90;;;;;;4968067;28;20054;-63
2021/07/31 09:15:52;;;;;;;3.50;2.10;;;18.50;99.90;;;;;;4966562;28;20037;-62
2021/07/31 09:18:34;;;;;;;8.70;2.53;;;18.20;99.90;;;;;;4967385;28;20023;-63
2021/07/31 09:21:15;;;;;;;3.88;1.75;;;18.20;99.90;;;;;;4969008;28;20057;-63
2021/07/31 09:23:52;;;;;;;4.03;1.50;;;18.20;99.90;;;;;;4960363;28;20027;-61
2021/07/31 09:26:23;;;;;;;6.45;1.80;;;18.30;99.90;;;;;;4970653;28;20019;-62
2021/07/31 09:29:10;;;;;;;5.32;1.70;;;18.40;99.90;;;;;;4983225;28;20066;-62
2021/07/31 09:31:44;;;;;;;3.03;1.60;;;18.50;99.90;;;;;;4964354;28;20026;-62
2021/07/31 09:34:11;;;;;;;4.10;1.70;;;18.30;99.90;;;;;;4966911;28;20034;-62
2021/07/31 09:36:41;;;;;;;6.80;1.98;;;18.20;99.90;;;;;;4966704;28;20085;-62
2021/07/31 09:39:08;;;;;;;4.15;1.40;;;18.20;99.90;;;;;;4964360;28;20030;-62
2021/07/31 09:41:42;;;;;;;6.75;1.73;;;18.10;99.90;;;;;;4971200;28;20073;-62
2021/07/31 09:44:17;;;;;;;3.50;1.85;;;18.20;99.90;;;;;;4969724;28;20106;-62
2021/07/31 09:47:01;;;;;;;3.55;1.40;;;18.20;99.90;;;;;;4972343;28;20031;-62
2021/07/31 09:49:29;;;;;;;2.63;1.48;;;18.30;99.90;;;;;;4970136;28;20031;-63
2021/07/31 09:51:59;;;;;;;5.97;2.40;;;19.60;99.90;;;;;;4969616;28;20033;-62
2021/07/31 09:54:24;;;;;;;4.13;1.15;;;20.60;98.90;;;;;;4967700;28;20448;-64
2021/07/31 09:56:52;;;;;;;2.15;0.80;;;21.80;97.20;;;;;;4961655;28;20038;-63
2021/07/31 09:59:22;;;;;;;4.22;1.23;;;22.60;94.50;;;;;;4964840;28;20038;-63
2021/07/31 10:02:00;;;;;;;2.85;1.08;;;22.70;94.00;;;;;;4964522;28;20027;-63
2021/07/31 10:04:26;;;;;;;1.58;0.90;;;22.50;93.80;;;;;;4966698;28;20038;-63
2021/07/31 10:06:52;;;;;;;7.07;1.50;;;21.80;94.10;;;;;;4962544;28;20568;-63
2021/07/31 10:09:18;;;;;;;2.75;0.95;;;21.30;94.80;;;;;;4960827;28;20110;-61
2021/07/31 10:11:44;;;;;;;4.50;1.13;;;21.00;95.70;;;;;;4958682;28;20117;-62
2021/07/31 10:14:11;;;;;;;1.80;1.30;;;20.50;95.70;;;;;;4961547;28;20576;-61
2021/07/31 10:16:45;;;;;;;5.38;1.13;;;20.60;96.30;;;;;;4959424;28;20022;-63
2021/07/31 10:19:11;;;;;;;2.85;1.00;;;21.10;96.10;;;;;;4958447;28;20035;-63
2021/07/31 10:21:48;;;;;;;4.63;1.25;;;21.20;96.20;;;;;;4959148;28;20015;-63
2021/07/31 10:24:14;;;;;;;2.42;1.30;;;21.40;95.50;;;;;;4959843;28;20401;-62
2021/07/31 10:26:40;;;;;;;3.95;1.30;;;21.60;95.30;;;;;;4962519;28;20033;-62
2021/07/31 10:29:34;;;;;;;4.85;1.70;;;21.80;95.30;;;;;;4960057;28;20501;-63
2021/07/31 10:32:19;;;;;;;3.00;1.45;;;21.20;94.70;;;;;;4957912;28;20869;-62
2021/07/31 10:34:52;;;;;;;3.00;1.40;;;21.60;95.50;;;;;;4962472;28;20035;-61
2021/07/31 10:37:34;;;;;;;;;;;22.20;95.80;;;;;;4964026;28;20493;-61
2021/07/31 10:40:07;;;;;;;4.30;1.30;;;23.30;93.70;;;;;;4966736;28;20408;-62
2021/07/31 10:42:47;;;;;;;5.63;1.10;;;23.60;93.30;;;;;;4964008;28;20026;-61
2021/07/31 10:45:15;;;;;;;4.40;1.20;;;23.70;92.50;;;;;;4970016;28;20050;-62
2021/07/31 10:47:46;;;;;;;2.13;1.15;;;23.20;93.10;;;;;;4973532;28;20030;-63
2021/07/31 10:50:27;;;;;;;1.95;1.02;;;22.70;92.90;;;;;;4967561;28;20400;-62
2021/07/31 10:52:56;;;;;;;3.42;1.70;;;21.80;93.60;;;;;;4984151;28;20039;-61
2021/07/31 10:55:26;;;;;;;4.00;1.75;;;20.90;95.00;;;;;;4971625;28;20034;-62
2021/07/31 10:57:54;;;;;;;5.13;1.88;;;20.40;95.50;;;;;;4976132;28;20113;-61
2021/07/31 11:00:24;;;;;;;3.53;1.45;;;20.30;96.40;;;;;;4973477;28;20054;-61
2021/07/31 11:02:50;;;;;;;1.42;1.33;;;20.20;96.30;;;;;;4973678;28;20026;-63
2021/07/31 11:05:16;;;;;;;3.42;1.50;;;20.40;96.30;;;;;;4971226;28;20023;-62
2021/07/31 11:08:00;;;;;;;7.03;2.05;;;20.70;95.90;;;;;;4970291;28;20126;-61
2021/07/31 11:10:42;;;;;;;2.75;1.30;;;21.10;95.80;;;;;;4972672;28;20027;-61
2021/07/31 11:13:10;;;;;;;4.05;1.00;;;21.40;95.70;;;;;;4970442;28;20516;-61
2021/07/31 11:15:36;;;;;;;4.38;1.30;;;21.70;94.70;;;;;;4972991;28;20561;-62
2021/07/31 11:18:04;;;;;;;4.85;1.48;;;21.70;93.80;;;;;;4992778;28;20031;-62
2021/07/31 11:20:37;;;;;;;2.67;1.17;;;22.00;94.50;;;;;;4970873;28;20038;-63
2021/07/31 11:23:05;;;;;;;2.60;0.93;;;22.50;94.00;;;;;;4966089;28;20027;-62
2021/07/31 11:25:31;;;;;;;2.45;1.30;;;23.10;93.00;;;;;;4987640;28;20063;-61
2021/07/31 11:28:00;;;;;;;3.67;1.20;;;22.70;91.70;;;;;;4974941;28;20019;-64
2021/07/31 11:30:42;;;;;;;2.92;1.13;;;22.30;92.80;;;;;;4972506;28;20029;-61
2021/07/31 11:33:35;;;;;;;3.33;1.30;;;21.80;93.70;;;;;;4973204;28;20031;-62
2021/07/31 11:36:12;;;;;;;4.18;1.40;;;21.30;94.50;;;;;;4968795;28;20043;-61
2021/07/31 11:38:40;;;;;;;3.55;1.58;;;21.10;95.20;;;;;;4974894;28;20035;-63
2021/07/31 11:41:07;;;;;;;3.17;1.40;;;21.10;94.90;;;;;;4973248;28;20026;-62
2021/07/31 11:43:52;;;;;;;4.85;1.25;;;21.20;94.90;;;;;;4972858;28;20034;-64
2021/07/31 11:46:31;;;;;;;3.67;1.38;;;21.10;95.60;;;;;;4971322;28;20034;-61
2021/07/31 11:48:59;;;;;;;2.28;1.55;;;20.90;95.20;;;;;;4976237;28;20030;-63
2021/07/31 11:51:25;;;;;;;5.05;1.75;;;20.60;96.60;;;;;;4974943;28;20616;-63
2021/07/31 11:53:52;;;;;;;4.53;1.60;;;20.30;97.70;;;;;;4972242;28;20045;-61
2021/07/31 11:56:22;;;;;;;4.90;1.83;;;20.10;98.00;;;;;;4974373;28;20031;-63
2021/07/31 11:58:55;;;;;;;4.28;1.90;;;20.10;98.50;;;;;;4972510;28;20035;-62
2021/07/31 12:01:21;;;;;;;1.98;1.63;;;20.10;99.30;;;;;;4973423;28;20026;-63
2021/07/31 12:03:51;;;;;;;4.82;1.98;;;20.00;98.00;;;;;;4967528;28;20425;-62
2021/07/31 12:06:30;;;;;;;5.68;1.73;;;20.30;97.70;;;;;;4957129;28;20031;-62
2021/07/31 12:09:00;;;;;;;5.95;1.45;;;20.80;97.10;;;;;;4959960;28;20576;-62
2021/07/31 12:11:41;;;;;;;4.57;1.65;;;21.50;96.50;;;;;;4966442;28;20035;-62
2021/07/31 12:14:45;;;;;;;3.33;1.33;;;21.70;95.00;;;;;;4962226;28;20114;-62
2021/07/31 12:17:21;;;;;;;3.55;1.70;;;21.50;95.50;;;;;;4913399;29;20522;-61
2021/07/31 12:19:48;;;;;;;3.17;1.20;;;21.60;95.20;;;;;;4916097;29;20040;-63
2021/07/31 12:22:16;;;;;;;2.40;1.40;;;22.00;95.20;;;;;;4945526;28;20046;-64
2021/07/31 12:24:43;;;;;;;4.47;0.98;;;22.20;95.20;;;;;;4970210;28;20150;-63
2021/07/31 12:27:08;;;;;;;5.13;1.15;;;22.40;94.80;;;;;;4972464;28;20030;-62
2021/07/31 12:29:39;;;;;;;4.15;0.90;;;22.60;94.50;;;;;;4971147;28;20248;-63
2021/07/31 12:32:26;;;;;;;9.15;1.30;;;23.00;94.70;;;;;;4972276;28;20031;-63
2021/07/31 12:34:54;;;;;;;1.45;1.17;;;23.20;94.30;;;;;;4968401;28;20025;-63
2021/07/31 12:37:20;;;;;;;2.10;0.60;;;22.80;93.70;;;;;;4971036;28;20078;-63
2021/07/31 12:39:46;;;;;;;1.58;0.88;;;22.50;94.40;;;;;;4971537;28;20029;-63
2021/07/31 12:42:12;;;;;;;3.13;1.08;;;22.10;94.70;;;;;;4971317;28;20031;-63
2021/07/31 12:44:39;;;;;;;2.60;1.13;;;22.10;95.30;;;;;;4970906;28;20065;-63
2021/07/31 12:47:10;;;;;;;5.50;2.55;;;22.00;95.40;;;;;;4970098;28;20167;-63
2021/07/31 12:49:36;;;;;;;4.35;2.15;;;22.00;95.80;;;;;;4963445;28;20034;-63
2021/07/31 12:52:02;;;;;;;4.80;2.70;;;21.70;95.80;;;;;;4972002;28;20510;-63